sensor_id;sensor_type;location;lat;lon;timestamp;P1;durP1;ratioP1;P2;durP2;ratioP2
41436;SDS011;27178;49.460;10.850;2022-09-03T00:02:20;2.15;;;1.30;;
41436;SDS011;27178;49.460;10.850;2022-09-03T00:04:55;1.17;;;1.08;;
41436;SDS011;27178;49.460;10.850;2022-09-03T00:07:33;2.05;;;1.35;;
41436;SDS011;27178;49.460;10.850;2022-09-03T00:10:10;1.10;;;0.93;;
41436;SDS011;27178;49.460;10.850;2022-09-03T00:12:42;1.17;;;1.08;;
41436;SDS011;27178;49.460;10.850;2022-09-03T00:15:13;2.55;;;1.40;;
41436;SDS011;27178;49.460;10.850;2022-09-03T00:17:46;1.40;;;1.30;;
41436;SDS011;27178;49.460;10.850;2022-09-03T00:20:19;1.35;;;1.25;;
41436;SDS011;27178;49.460;10.850;2022-09-03T00:22:53;1.02;;;0.93;;
41436;SDS011;27178;49.460;10.850;2022-09-03T00:25:25;2.47;;;1.20;;
41436;SDS011;27178;49.460;10.850;2022-09-03T00:28:01;2.08;;;1.00;;
41436;SDS011;27178;49.460;10.850;2022-09-03T00:30:34;1.30;;;1.20;;
41436;SDS011;27178;49.460;10.850;2022-09-03T00:33:03;3.97;;;1.20;;
41436;SDS011;27178;49.460;10.850;2022-09-03T00:35:36;2.10;;;1.38;;
41436;SDS011;27178;49.460;10.850;2022-09-03T00:38:10;1.88;;;1.40;;
41436;SDS011;27178;49.460;10.850;2022-09-03T00:40:47;1.10;;;1.05;;
41436;SDS011;27178;49.460;10.850;2022-09-03T00:43:32;1.77;;;1.30;;
41436;SDS011;27178;49.460;10.850;2022-09-03T00:46:14;1.30;;;1.20;;
41436;SDS011;27178;49.460;10.850;2022-09-03T00:48:52;1.92;;;1.30;;
41436;SDS011;27178;49.460;10.850;2022-09-03T00:51:32;1.95;;;0.95;;
41436;SDS011;27178;49.460;10.850;2022-09-03T00:54:08;3.40;;;1.20;;
41436;SDS011;27178;49.460;10.850;2022-09-03T00:56:45;1.25;;;1.00;;
41436;SDS011;27178;49.460;10.850;2022-09-03T00:59:23;1.17;;;1.08;;
41436;SDS011;27178;49.460;10.850;2022-09-03T01:02:00;1.73;;;1.20;;
41436;SDS011;27178;49.460;10.850;2022-09-03T01:04:41;1.08;;;0.98;;
41436;SDS011;27178;49.460;10.850;2022-09-03T01:07:21;1.27;;;1.17;;
41436;SDS011;27178;49.460;10.850;2022-09-03T01:10:03;1.55;;;1.33;;
41436;SDS011;27178;49.460;10.850;2022-09-03T01:12:42;1.63;;;1.20;;
41436;SDS011;27178;49.460;10.850;2022-09-03T01:15:19;0.95;;;0.95;;
41436;SDS011;27178;49.460;10.850;2022-09-03T01:18:00;1.77;;;1.02;;
41436;SDS011;27178;49.460;10.850;2022-09-03T01:20:37;1.20;;;1.10;;
41436;SDS011;27178;49.460;10.850;2022-09-03T01:23:18;1.95;;;1.25;;
41436;SDS011;27178;49.460;10.850;2022-09-03T01:26:13;1.17;;;0.90;;
41436;SDS011;27178;49.460;10.850;2022-09-03T01:28:58;3.40;;;1.20;;
41436;SDS011;27178;49.460;10.850;2022-09-03T01:31:37;1.10;;;1.00;;
41436;SDS011;27178;49.460;10.850;2022-09-03T01:34:19;1.20;;;1.10;;
41436;SDS011;27178;49.460;10.850;2022-09-03T01:36:59;1.77;;;1.20;;
41436;SDS011;27178;49.460;10.850;2022-09-03T01:39:37;1.40;;;1.20;;
41436;SDS011;27178;49.460;10.850;2022-09-03T01:42:18;1.80;;;1.20;;
41436;SDS011;27178;49.460;10.850;2022-09-03T01:48:29;1.63;;;1.27;;
41436;SDS011;27178;49.460;10.850;2022-09-03T01:51:05;1.30;;;1.20;;
41436;SDS011;27178;49.460;10.850;2022-09-03T01:56:55;1.27;;;1.17;;
41436;SDS011;27178;49.460;10.850;2022-09-03T02:00:03;0.82;;;0.82;;
41436;SDS011;27178;49.460;10.850;2022-09-03T02:02:33;1.25;;;1.05;;
41436;SDS011;27178;49.460;10.850;2022-09-03T02:05:05;1.02;;;1.00;;
41436;SDS011;27178;49.460;10.850;2022-09-03T02:11:17;1.08;;;1.08;;
41436;SDS011;27178;49.460;10.850;2022-09-03T02:13:46;1.42;;;1.33;;
41436;SDS011;27178;49.460;10.850;2022-09-03T02:16:17;1.92;;;1.40;;
41436;SDS011;27178;49.460;10.850;2022-09-03T02:18:50;1.40;;;1.05;;
41436;SDS011;27178;49.460;10.850;2022-09-03T02:21:24;1.58;;;1.20;;
41436;SDS011;27178;49.460;10.850;2022-09-03T02:23:56;1.30;;;1.20;;
41436;SDS011;27178;49.460;10.850;2022-09-03T02:26:25;1.50;;;1.17;;
41436;SDS011;27178;49.460;10.850;2022-09-03T02:28:54;0.88;;;0.88;;
41436;SDS011;27178;49.460;10.850;2022-09-03T02:31:23;0.85;;;0.85;;
41436;SDS011;27178;49.460;10.850;2022-09-03T02:33:53;3.45;;;1.40;;
41436;SDS011;27178;49.460;10.850;2022-09-03T02:36:27;1.00;;;1.00;;
41436;SDS011;27178;49.460;10.850;2022-09-03T02:38:58;0.70;;;0.70;;
41436;SDS011;27178;49.460;10.850;2022-09-03T02:41:27;1.33;;;0.98;;
41436;SDS011;27178;49.460;10.850;2022-09-03T02:43:57;1.58;;;1.13;;
41436;SDS011;27178;49.460;10.850;2022-09-03T02:46:31;1.30;;;1.10;;
41436;SDS011;27178;49.460;10.850;2022-09-03T02:49:02;1.52;;;1.15;;
41436;SDS011;27178;49.460;10.850;2022-09-03T02:51:35;3.05;;;1.20;;
41436;SDS011;27178;49.460;10.850;2022-09-03T02:54:07;3.08;;;1.30;;
41436;SDS011;27178;49.460;10.850;2022-09-03T02:56:37;1.08;;;1.08;;
41436;SDS011;27178;49.460;10.850;2022-09-03T02:59:06;1.00;;;1.00;;
41436;SDS011;27178;49.460;10.850;2022-09-03T03:01:35;1.30;;;1.20;;
41436;SDS011;27178;49.460;10.850;2022-09-03T03:04:07;1.50;;;1.27;;
41436;SDS011;27178;49.460;10.850;2022-09-03T03:06:37;1.48;;;1.20;;
41436;SDS011;27178;49.460;10.850;2022-09-03T03:09:05;1.33;;;1.23;;
41436;SDS011;27178;49.460;10.850;2022-09-03T03:11:34;1.52;;;1.23;;
41436;SDS011;27178;49.460;10.850;2022-09-03T03:14:03;1.40;;;1.30;;
41436;SDS011;27178;49.460;10.850;2022-09-03T03:16:32;1.50;;;1.40;;
41436;SDS011;27178;49.460;10.850;2022-09-03T03:19:01;1.83;;;1.60;;
41436;SDS011;27178;49.460;10.850;2022-09-03T03:21:30;1.58;;;1.48;;
41436;SDS011;27178;49.460;10.850;2022-09-03T03:24:01;1.65;;;1.30;;
41436;SDS011;27178;49.460;10.850;2022-09-03T03:26:30;1.55;;;1.40;;
41436;SDS011;27178;49.460;10.850;2022-09-03T03:28:59;1.60;;;1.50;;
41436;SDS011;27178;49.460;10.850;2022-09-03T03:31:30;1.60;;;1.45;;
41436;SDS011;27178;49.460;10.850;2022-09-03T03:33:59;2.40;;;1.52;;
41436;SDS011;27178;49.460;10.850;2022-09-03T03:36:30;2.20;;;2.00;;
41436;SDS011;27178;49.460;10.850;2022-09-03T03:39:01;1.38;;;1.27;;
41436;SDS011;27178;49.460;10.850;2022-09-03T03:41:30;1.50;;;1.40;;
41436;SDS011;27178;49.460;10.850;2022-09-03T03:44:01;1.50;;;1.40;;
41436;SDS011;27178;49.460;10.850;2022-09-03T03:46:31;1.58;;;1.48;;
41436;SDS011;27178;49.460;10.850;2022-09-03T03:49:00;1.40;;;1.30;;
41436;SDS011;27178;49.460;10.850;2022-09-03T03:51:29;1.70;;;1.48;;
41436;SDS011;27178;49.460;10.850;2022-09-03T03:53:58;1.38;;;1.27;;
41436;SDS011;27178;49.460;10.850;2022-09-03T03:56:32;1.90;;;1.80;;
41436;SDS011;27178;49.460;10.850;2022-09-03T03:59:01;2.05;;;1.85;;
41436;SDS011;27178;49.460;10.850;2022-09-03T04:01:30;1.38;;;1.27;;
41436;SDS011;27178;49.460;10.850;2022-09-03T04:03:59;2.15;;;1.40;;
41436;SDS011;27178;49.460;10.850;2022-09-03T04:06:27;1.90;;;1.70;;
41436;SDS011;27178;49.460;10.850;2022-09-03T04:08:56;3.72;;;2.20;;
41436;SDS011;27178;49.460;10.850;2022-09-03T04:11:24;1.80;;;1.65;;
41436;SDS011;27178;49.460;10.850;2022-09-03T04:13:55;1.60;;;1.50;;
41436;SDS011;27178;49.460;10.850;2022-09-03T04:16:23;1.77;;;1.67;;
41436;SDS011;27178;49.460;10.850;2022-09-03T04:18:54;3.47;;;1.70;;
41436;SDS011;27178;49.460;10.850;2022-09-03T04:21:23;2.58;;;1.50;;
41436;SDS011;27178;49.460;10.850;2022-09-03T04:23:54;1.65;;;1.55;;
41436;SDS011;27178;49.460;10.850;2022-09-03T04:26:24;2.35;;;1.60;;
41436;SDS011;27178;49.460;10.850;2022-09-03T04:28:58;1.70;;;1.60;;
41436;SDS011;27178;49.460;10.850;2022-09-03T04:31:27;2.42;;;1.65;;
41436;SDS011;27178;49.460;10.850;2022-09-03T04:33:57;1.70;;;1.58;;
41436;SDS011;27178;49.460;10.850;2022-09-03T04:36:25;1.95;;;1.40;;
41436;SDS011;27178;49.460;10.850;2022-09-03T04:38:57;1.50;;;1.40;;
41436;SDS011;27178;49.460;10.850;2022-09-03T04:41:27;1.55;;;1.40;;
41436;SDS011;27178;49.460;10.850;2022-09-03T04:43:58;2.83;;;1.60;;
41436;SDS011;27178;49.460;10.850;2022-09-03T04:46:27;2.53;;;1.80;;
41436;SDS011;27178;49.460;10.850;2022-09-03T04:48:59;1.67;;;1.50;;
41436;SDS011;27178;49.460;10.850;2022-09-03T04:51:28;2.67;;;1.30;;
41436;SDS011;27178;49.460;10.850;2022-09-03T04:53:57;2.08;;;1.55;;
41436;SDS011;27178;49.460;10.850;2022-09-03T04:56:28;2.13;;;1.50;;
41436;SDS011;27178;49.460;10.850;2022-09-03T04:58:59;1.52;;;1.17;;
41436;SDS011;27178;49.460;10.850;2022-09-03T05:01:29;2.00;;;1.75;;
41436;SDS011;27178;49.460;10.850;2022-09-03T05:03:59;2.20;;;1.38;;
41436;SDS011;27178;49.460;10.850;2022-09-03T05:06:28;1.30;;;1.20;;
41436;SDS011;27178;49.460;10.850;2022-09-03T05:08:58;1.50;;;1.35;;
41436;SDS011;27178;49.460;10.850;2022-09-03T05:11:27;2.08;;;1.70;;
41436;SDS011;27178;49.460;10.850;2022-09-03T05:13:56;1.50;;;1.40;;
41436;SDS011;27178;49.460;10.850;2022-09-03T05:16:27;1.65;;;1.45;;
41436;SDS011;27178;49.460;10.850;2022-09-03T05:18:57;2.60;;;1.40;;
41436;SDS011;27178;49.460;10.850;2022-09-03T05:21:27;1.88;;;1.63;;
41436;SDS011;27178;49.460;10.850;2022-09-03T05:23:58;1.67;;;1.42;;
41436;SDS011;27178;49.460;10.850;2022-09-03T05:26:28;1.40;;;1.30;;
41436;SDS011;27178;49.460;10.850;2022-09-03T05:28:59;3.13;;;1.50;;
41436;SDS011;27178;49.460;10.850;2022-09-03T05:31:29;1.67;;;1.30;;
41436;SDS011;27178;49.460;10.850;2022-09-03T05:33:58;1.98;;;1.20;;
41436;SDS011;27178;49.460;10.850;2022-09-03T05:36:29;1.60;;;1.50;;
41436;SDS011;27178;49.460;10.850;2022-09-03T05:38:59;1.70;;;1.60;;
41436;SDS011;27178;49.460;10.850;2022-09-03T05:41:28;1.65;;;1.55;;
41436;SDS011;27178;49.460;10.850;2022-09-03T05:44:00;3.72;;;1.60;;
41436;SDS011;27178;49.460;10.850;2022-09-03T05:46:30;1.70;;;1.60;;
41436;SDS011;27178;49.460;10.850;2022-09-03T05:48:59;1.42;;;1.33;;
41436;SDS011;27178;49.460;10.850;2022-09-03T05:51:29;1.65;;;1.55;;
41436;SDS011;27178;49.460;10.850;2022-09-03T05:53:58;3.00;;;1.40;;
41436;SDS011;27178;49.460;10.850;2022-09-03T05:56:28;9.10;;;1.80;;
41436;SDS011;27178;49.460;10.850;2022-09-03T05:58:59;2.88;;;1.60;;
41436;SDS011;27178;49.460;10.850;2022-09-03T06:01:32;2.03;;;1.83;;
41436;SDS011;27178;49.460;10.850;2022-09-03T06:04:01;1.58;;;1.45;;
41436;SDS011;27178;49.460;10.850;2022-09-03T06:06:33;1.90;;;1.80;;
41436;SDS011;27178;49.460;10.850;2022-09-03T06:09:03;1.10;;;1.00;;
41436;SDS011;27178;49.460;10.850;2022-09-03T06:11:34;1.45;;;1.35;;
41436;SDS011;27178;49.460;10.850;2022-09-03T06:14:05;1.75;;;1.40;;
41436;SDS011;27178;49.460;10.850;2022-09-03T06:16:35;1.70;;;1.50;;
41436;SDS011;27178;49.460;10.850;2022-09-03T06:19:05;2.78;;;1.17;;
41436;SDS011;27178;49.460;10.850;2022-09-03T06:21:35;1.30;;;1.20;;
41436;SDS011;27178;49.460;10.850;2022-09-03T06:24:07;1.58;;;1.30;;
41436;SDS011;27178;49.460;10.850;2022-09-03T06:26:37;1.40;;;1.30;;
41436;SDS011;27178;49.460;10.850;2022-09-03T06:29:09;2.38;;;1.40;;
41436;SDS011;27178;49.460;10.850;2022-09-03T06:31:38;2.03;;;1.33;;
41436;SDS011;27178;49.460;10.850;2022-09-03T06:34:06;1.63;;;1.35;;
41436;SDS011;27178;49.460;10.850;2022-09-03T06:36:34;0.98;;;0.90;;
41436;SDS011;27178;49.460;10.850;2022-09-03T06:39:03;1.40;;;1.30;;
41436;SDS011;27178;49.460;10.850;2022-09-03T06:41:31;1.55;;;1.45;;
41436;SDS011;27178;49.460;10.850;2022-09-03T06:44:01;1.50;;;1.40;;
41436;SDS011;27178;49.460;10.850;2022-09-03T06:46:33;1.98;;;1.60;;
41436;SDS011;27178;49.460;10.850;2022-09-03T06:49:04;1.33;;;1.23;;
41436;SDS011;27178;49.460;10.850;2022-09-03T06:51:33;4.57;;;1.45;;
41436;SDS011;27178;49.460;10.850;2022-09-03T06:54:04;1.95;;;1.50;;
41436;SDS011;27178;49.460;10.850;2022-09-03T06:56:33;2.00;;;1.63;;
41436;SDS011;27178;49.460;10.850;2022-09-03T06:59:06;1.50;;;1.40;;
41436;SDS011;27178;49.460;10.850;2022-09-03T07:01:37;1.65;;;1.52;;
41436;SDS011;27178;49.460;10.850;2022-09-03T07:04:10;2.53;;;1.73;;
41436;SDS011;27178;49.460;10.850;2022-09-03T07:06:42;2.33;;;1.30;;
41436;SDS011;27178;49.460;10.850;2022-09-03T07:09:12;1.95;;;1.35;;
41436;SDS011;27178;49.460;10.850;2022-09-03T07:11:41;1.38;;;1.20;;
41436;SDS011;27178;49.460;10.850;2022-09-03T07:14:14;3.75;;;1.70;;
41436;SDS011;27178;49.460;10.850;2022-09-03T07:16:45;1.63;;;1.50;;
41436;SDS011;27178;49.460;10.850;2022-09-03T07:19:14;1.70;;;1.40;;
41436;SDS011;27178;49.460;10.850;2022-09-03T07:21:43;1.40;;;1.30;;
41436;SDS011;27178;49.460;10.850;2022-09-03T07:24:16;2.03;;;1.20;;
41436;SDS011;27178;49.460;10.850;2022-09-03T07:26:45;2.40;;;1.60;;
41436;SDS011;27178;49.460;10.850;2022-09-03T07:29:14;1.30;;;1.20;;
41436;SDS011;27178;49.460;10.850;2022-09-03T07:31:48;3.88;;;1.60;;
41436;SDS011;27178;49.460;10.850;2022-09-03T07:34:19;1.45;;;1.35;;
41436;SDS011;27178;49.460;10.850;2022-09-03T07:36:50;2.28;;;1.52;;
41436;SDS011;27178;49.460;10.850;2022-09-03T07:39:19;1.60;;;1.20;;
41436;SDS011;27178;49.460;10.850;2022-09-03T07:41:47;1.23;;;1.13;;
41436;SDS011;27178;49.460;10.850;2022-09-03T07:44:16;2.35;;;1.60;;
41436;SDS011;27178;49.460;10.850;2022-09-03T07:46:47;1.60;;;1.50;;
41436;SDS011;27178;49.460;10.850;2022-09-03T07:49:17;1.65;;;1.48;;
41436;SDS011;27178;49.460;10.850;2022-09-03T07:51:47;1.77;;;1.48;;
41436;SDS011;27178;49.460;10.850;2022-09-03T07:54:18;1.80;;;1.50;;
41436;SDS011;27178;49.460;10.850;2022-09-03T07:56:48;1.80;;;1.38;;
41436;SDS011;27178;49.460;10.850;2022-09-03T07:59:17;1.70;;;1.60;;
41436;SDS011;27178;49.460;10.850;2022-09-03T08:01:48;2.17;;;1.48;;
41436;SDS011;27178;49.460;10.850;2022-09-03T08:04:17;1.35;;;1.25;;
41436;SDS011;27178;49.460;10.850;2022-09-03T08:06:47;1.90;;;1.52;;
41436;SDS011;27178;49.460;10.850;2022-09-03T08:09:16;1.40;;;1.30;;
41436;SDS011;27178;49.460;10.850;2022-09-03T08:11:44;1.35;;;1.20;;
41436;SDS011;27178;49.460;10.850;2022-09-03T08:14:13;1.65;;;1.55;;
41436;SDS011;27178;49.460;10.850;2022-09-03T08:16:42;1.60;;;1.50;;
41436;SDS011;27178;49.460;10.850;2022-09-03T08:19:14;1.40;;;1.30;;
41436;SDS011;27178;49.460;10.850;2022-09-03T08:21:43;2.92;;;1.48;;
41436;SDS011;27178;49.460;10.850;2022-09-03T08:24:13;1.85;;;1.73;;
41436;SDS011;27178;49.460;10.850;2022-09-03T08:26:42;1.42;;;1.33;;
41436;SDS011;27178;49.460;10.850;2022-09-03T08:29:17;1.38;;;1.27;;
41436;SDS011;27178;49.460;10.850;2022-09-03T08:31:45;2.10;;;1.30;;
41436;SDS011;27178;49.460;10.850;2022-09-03T08:34:15;1.63;;;1.45;;
41436;SDS011;27178;49.460;10.850;2022-09-03T08:36:44;1.30;;;1.20;;
41436;SDS011;27178;49.460;10.850;2022-09-03T08:39:13;1.85;;;1.25;;
41436;SDS011;27178;49.460;10.850;2022-09-03T08:41:47;1.48;;;1.38;;
41436;SDS011;27178;49.460;10.850;2022-09-03T08:44:42;1.30;;;1.20;;
41436;SDS011;27178;49.460;10.850;2022-09-03T08:47:15;1.73;;;1.17;;
41436;SDS011;27178;49.460;10.850;2022-09-03T08:49:49;2.75;;;1.45;;
41436;SDS011;27178;49.460;10.850;2022-09-03T08:52:23;1.25;;;1.10;;
41436;SDS011;27178;49.460;10.850;2022-09-03T08:54:57;2.55;;;1.25;;
41436;SDS011;27178;49.460;10.850;2022-09-03T08:57:31;1.98;;;1.27;;
41436;SDS011;27178;49.460;10.850;2022-09-03T09:00:07;1.88;;;1.30;;
41436;SDS011;27178;49.460;10.850;2022-09-03T09:02:39;1.90;;;1.40;;
41436;SDS011;27178;49.460;10.850;2022-09-03T09:05:23;1.38;;;1.27;;
41436;SDS011;27178;49.460;10.850;2022-09-03T09:08:00;0.90;;;0.90;;
41436;SDS011;27178;49.460;10.850;2022-09-03T09:10:36;1.33;;;1.23;;
41436;SDS011;27178;49.460;10.850;2022-09-03T09:13:13;1.63;;;1.05;;
41436;SDS011;27178;49.460;10.850;2022-09-03T09:15:53;1.42;;;1.33;;
41436;SDS011;27178;49.460;10.850;2022-09-03T09:18:36;1.50;;;1.40;;
41436;SDS011;27178;49.460;10.850;2022-09-03T09:21:12;1.55;;;1.10;;
41436;SDS011;27178;49.460;10.850;2022-09-03T09:23:48;1.50;;;1.15;;
41436;SDS011;27178;49.460;10.850;2022-09-03T09:26:18;1.20;;;1.10;;
41436;SDS011;27178;49.460;10.850;2022-09-03T09:28:49;0.93;;;0.93;;
41436;SDS011;27178;49.460;10.850;2022-09-03T09:31:22;1.08;;;0.98;;
41436;SDS011;27178;49.460;10.850;2022-09-03T09:33:52;1.67;;;1.40;;
41436;SDS011;27178;49.460;10.850;2022-09-03T09:36:22;1.30;;;1.20;;
41436;SDS011;27178;49.460;10.850;2022-09-03T09:38:51;1.20;;;1.10;;
41436;SDS011;27178;49.460;10.850;2022-09-03T09:41:20;1.20;;;1.20;;
41436;SDS011;27178;49.460;10.850;2022-09-03T09:43:58;3.42;;;1.65;;
41436;SDS011;27178;49.460;10.850;2022-09-03T09:46:30;1.95;;;1.00;;
41436;SDS011;27178;49.460;10.850;2022-09-03T09:49:02;3.35;;;1.13;;
41436;SDS011;27178;49.460;10.850;2022-09-03T09:51:58;2.28;;;1.20;;
41436;SDS011;27178;49.460;10.850;2022-09-03T09:54:28;1.23;;;1.13;;
41436;SDS011;27178;49.460;10.850;2022-09-03T09:56:57;1.70;;;1.10;;
41436;SDS011;27178;49.460;10.850;2022-09-03T09:59:27;1.55;;;1.10;;
41436;SDS011;27178;49.460;10.850;2022-09-03T10:02:08;1.40;;;1.30;;
41436;SDS011;27178;49.460;10.850;2022-09-03T10:04:47;1.45;;;1.25;;
41436;SDS011;27178;49.460;10.850;2022-09-03T10:07:26;1.30;;;1.20;;
41436;SDS011;27178;49.460;10.850;2022-09-03T10:09:58;1.30;;;1.20;;
41436;SDS011;27178;49.460;10.850;2022-09-03T10:12:32;1.20;;;1.10;;
41436;SDS011;27178;49.460;10.850;2022-09-03T10:15:11;2.00;;;1.60;;
41436;SDS011;27178;49.460;10.850;2022-09-03T10:17:55;1.42;;;1.30;;
41436;SDS011;27178;49.460;10.850;2022-09-03T10:20:31;2.08;;;1.30;;
41436;SDS011;27178;49.460;10.850;2022-09-03T10:23:09;1.42;;;1.20;;
41436;SDS011;27178;49.460;10.850;2022-09-03T10:25:50;1.30;;;1.17;;
41436;SDS011;27178;49.460;10.850;2022-09-03T10:28:30;1.80;;;1.17;;
41436;SDS011;27178;49.460;10.850;2022-09-03T10:31:11;1.20;;;1.10;;
41436;SDS011;27178;49.460;10.850;2022-09-03T10:34:05;1.55;;;1.45;;
41436;SDS011;27178;49.460;10.850;2022-09-03T10:36:40;2.15;;;1.38;;
41436;SDS011;27178;49.460;10.850;2022-09-03T10:39:18;1.13;;;1.08;;
41436;SDS011;27178;49.460;10.850;2022-09-03T10:41:53;1.90;;;1.35;;
41436;SDS011;27178;49.460;10.850;2022-09-03T10:44:43;2.47;;;1.10;;
41436;SDS011;27178;49.460;10.850;2022-09-03T10:47:27;1.30;;;1.20;;
41436;SDS011;27178;49.460;10.850;2022-09-03T10:50:15;1.40;;;1.30;;
41436;SDS011;27178;49.460;10.850;2022-09-03T10:52:57;1.65;;;1.42;;
41436;SDS011;27178;49.460;10.850;2022-09-03T10:55:40;2.45;;;1.50;;
41436;SDS011;27178;49.460;10.850;2022-09-03T10:58:21;1.50;;;1.40;;
41436;SDS011;27178;49.460;10.850;2022-09-03T11:01:06;1.05;;;1.05;;
41436;SDS011;27178;49.460;10.850;2022-09-03T11:03:45;1.40;;;1.30;;
41436;SDS011;27178;49.460;10.850;2022-09-03T11:06:17;2.10;;;1.60;;
41436;SDS011;27178;49.460;10.850;2022-09-03T11:08:52;1.50;;;1.40;;
41436;SDS011;27178;49.460;10.850;2022-09-03T11:11:33;1.70;;;1.60;;
41436;SDS011;27178;49.460;10.850;2022-09-03T11:14:08;2.00;;;1.63;;
41436;SDS011;27178;49.460;10.850;2022-09-03T11:16:40;1.50;;;1.40;;
41436;SDS011;27178;49.460;10.850;2022-09-03T11:19:13;2.45;;;1.50;;
41436;SDS011;27178;49.460;10.850;2022-09-03T11:21:45;1.67;;;1.58;;
41436;SDS011;27178;49.460;10.850;2022-09-03T11:24:19;2.17;;;1.50;;
41436;SDS011;27178;49.460;10.850;2022-09-03T11:26:52;2.65;;;1.83;;
41436;SDS011;27178;49.460;10.850;2022-09-03T11:29:25;1.70;;;1.60;;
41436;SDS011;27178;49.460;10.850;2022-09-03T11:32:04;1.80;;;1.60;;
41436;SDS011;27178;49.460;10.850;2022-09-03T11:34:43;1.48;;;1.38;;
41436;SDS011;27178;49.460;10.850;2022-09-03T11:37:18;1.40;;;1.30;;
41436;SDS011;27178;49.460;10.850;2022-09-03T11:39:55;1.95;;;1.80;;
41436;SDS011;27178;49.460;10.850;2022-09-03T11:42:28;1.63;;;1.48;;
41436;SDS011;27178;49.460;10.850;2022-09-03T11:44:59;2.03;;;1.55;;
41436;SDS011;27178;49.460;10.850;2022-09-03T11:47:41;1.60;;;1.50;;
41436;SDS011;27178;49.460;10.850;2022-09-03T11:50:16;1.65;;;1.55;;
41436;SDS011;27178;49.460;10.850;2022-09-03T11:52:48;1.52;;;1.40;;
41436;SDS011;27178;49.460;10.850;2022-09-03T11:55:27;1.58;;;1.48;;
41436;SDS011;27178;49.460;10.850;2022-09-03T11:58:15;1.92;;;1.23;;
41436;SDS011;27178;49.460;10.850;2022-09-03T12:00:49;1.50;;;1.40;;
41436;SDS011;27178;49.460;10.850;2022-09-03T12:03:22;1.67;;;1.58;;
41436;SDS011;27178;49.460;10.850;2022-09-03T12:08:52;2.85;;;1.85;;
41436;SDS011;27178;49.460;10.850;2022-09-03T12:11:41;2.15;;;1.58;;
41436;SDS011;27178;49.460;10.850;2022-09-03T12:14:19;1.73;;;1.38;;
41436;SDS011;27178;49.460;10.850;2022-09-03T12:19:48;2.00;;;1.80;;
41436;SDS011;27178;49.460;10.850;2022-09-03T12:22:19;1.70;;;1.60;;
41436;SDS011;27178;49.460;10.850;2022-09-03T12:24:48;1.60;;;1.50;;
41436;SDS011;27178;49.460;10.850;2022-09-03T12:27:18;1.50;;;1.40;;
41436;SDS011;27178;49.460;10.850;2022-09-03T12:29:52;1.63;;;1.52;;
41436;SDS011;27178;49.460;10.850;2022-09-03T12:32:23;1.90;;;1.80;;
41436;SDS011;27178;49.460;10.850;2022-09-03T12:34:53;1.90;;;1.77;;
41436;SDS011;27178;49.460;10.850;2022-09-03T12:37:22;2.08;;;1.88;;
41436;SDS011;27178;49.460;10.850;2022-09-03T12:40:16;2.08;;;1.98;;
41436;SDS011;27178;49.460;10.850;2022-09-03T12:42:46;1.65;;;1.55;;
41436;SDS011;27178;49.460;10.850;2022-09-03T12:45:19;1.80;;;1.70;;
41436;SDS011;27178;49.460;10.850;2022-09-03T12:47:49;2.10;;;1.90;;
41436;SDS011;27178;49.460;10.850;2022-09-03T12:50:19;1.77;;;1.67;;
41436;SDS011;27178;49.460;10.850;2022-09-03T12:52:49;1.77;;;1.67;;
41436;SDS011;27178;49.460;10.850;2022-09-03T12:55:24;1.70;;;1.60;;
41436;SDS011;27178;49.460;10.850;2022-09-03T12:57:59;1.75;;;1.63;;
41436;SDS011;27178;49.460;10.850;2022-09-03T13:00:40;2.28;;;1.75;;
41436;SDS011;27178;49.460;10.850;2022-09-03T13:03:14;1.80;;;1.70;;
41436;SDS011;27178;49.460;10.850;2022-09-03T13:05:46;2.80;;;1.65;;
41436;SDS011;27178;49.460;10.850;2022-09-03T13:08:20;1.80;;;1.70;;
41436;SDS011;27178;49.460;10.850;2022-09-03T13:10:50;5.93;;;1.80;;
41436;SDS011;27178;49.460;10.850;2022-09-03T13:13:21;2.10;;;1.73;;
41436;SDS011;27178;49.460;10.850;2022-09-03T13:18:49;2.22;;;2.00;;
41436;SDS011;27178;49.460;10.850;2022-09-03T13:21:30;1.50;;;1.40;;
41436;SDS011;27178;49.460;10.850;2022-09-03T13:24:12;2.30;;;1.70;;
41436;SDS011;27178;49.460;10.850;2022-09-03T13:27:06;2.58;;;1.60;;
41436;SDS011;27178;49.460;10.850;2022-09-03T13:29:50;1.92;;;1.83;;
41436;SDS011;27178;49.460;10.850;2022-09-03T13:32:37;2.10;;;1.90;;
41436;SDS011;27178;49.460;10.850;2022-09-03T13:35:26;2.42;;;2.28;;
41436;SDS011;27178;49.460;10.850;2022-09-03T13:38:03;2.00;;;1.80;;
41436;SDS011;27178;49.460;10.850;2022-09-03T13:40:40;2.15;;;2.00;;
41436;SDS011;27178;49.460;10.850;2022-09-03T13:43:26;2.20;;;2.00;;
41436;SDS011;27178;49.460;10.850;2022-09-03T13:46:00;6.75;;;2.33;;
41436;SDS011;27178;49.460;10.850;2022-09-03T13:48:35;2.03;;;1.83;;
41436;SDS011;27178;49.460;10.850;2022-09-03T13:51:25;4.80;;;2.33;;
41436;SDS011;27178;49.460;10.850;2022-09-03T13:54:02;1.75;;;1.65;;
41436;SDS011;27178;49.460;10.850;2022-09-03T13:56:48;1.80;;;1.70;;
41436;SDS011;27178;49.460;10.850;2022-09-03T13:59:24;2.08;;;1.88;;
41436;SDS011;27178;49.460;10.850;2022-09-03T14:02:04;2.45;;;1.98;;
41436;SDS011;27178;49.460;10.850;2022-09-03T14:04:46;1.95;;;1.80;;
41436;SDS011;27178;49.460;10.850;2022-09-03T14:07:23;3.08;;;1.75;;
41436;SDS011;27178;49.460;10.850;2022-09-03T14:09:57;1.83;;;1.73;;
41436;SDS011;27178;49.460;10.850;2022-09-03T14:12:36;2.17;;;1.98;;
41436;SDS011;27178;49.460;10.850;2022-09-03T14:15:15;1.88;;;1.67;;
41436;SDS011;27178;49.460;10.850;2022-09-03T14:17:47;1.83;;;1.73;;
41436;SDS011;27178;49.460;10.850;2022-09-03T14:20:24;1.85;;;1.75;;
41436;SDS011;27178;49.460;10.850;2022-09-03T14:22:58;4.13;;;1.80;;
41436;SDS011;27178;49.460;10.850;2022-09-03T14:25:30;2.28;;;2.10;;
41436;SDS011;27178;49.460;10.850;2022-09-03T14:30:57;3.50;;;2.00;;
41436;SDS011;27178;49.460;10.850;2022-09-03T14:33:36;3.28;;;2.05;;
41436;SDS011;27178;49.460;10.850;2022-09-03T14:36:13;2.17;;;1.90;;
41436;SDS011;27178;49.460;10.850;2022-09-03T14:38:57;1.88;;;1.70;;
41436;SDS011;27178;49.460;10.850;2022-09-03T14:44:52;2.00;;;1.90;;
41436;SDS011;27178;49.460;10.850;2022-09-03T14:47:44;1.98;;;1.88;;
41436;SDS011;27178;49.460;10.850;2022-09-03T14:50:27;2.33;;;1.92;;
41436;SDS011;27178;49.460;10.850;2022-09-03T14:53:16;3.08;;;1.77;;
41436;SDS011;27178;49.460;10.850;2022-09-03T14:56:20;1.83;;;1.70;;
41436;SDS011;27178;49.460;10.850;2022-09-03T14:59:05;5.75;;;2.20;;
41436;SDS011;27178;49.460;10.850;2022-09-03T15:02:03;2.22;;;1.60;;
41436;SDS011;27178;49.460;10.850;2022-09-03T15:04:54;3.20;;;1.98;;
41436;SDS011;27178;49.460;10.850;2022-09-03T15:07:40;1.70;;;1.60;;
41436;SDS011;27178;49.460;10.850;2022-09-03T15:10:16;1.83;;;1.73;;
41436;SDS011;27178;49.460;10.850;2022-09-03T15:12:54;3.55;;;1.67;;
41436;SDS011;27178;49.460;10.850;2022-09-03T15:15:27;1.67;;;1.58;;
41436;SDS011;27178;49.460;10.850;2022-09-03T15:18:02;1.75;;;1.65;;
41436;SDS011;27178;49.460;10.850;2022-09-03T15:20:47;2.00;;;1.80;;
41436;SDS011;27178;49.460;10.850;2022-09-03T15:23:24;3.53;;;2.00;;
41436;SDS011;27178;49.460;10.850;2022-09-03T15:26:18;2.70;;;1.90;;
41436;SDS011;27178;49.460;10.850;2022-09-03T15:29:13;4.43;;;1.77;;
41436;SDS011;27178;49.460;10.850;2022-09-03T15:31:54;3.97;;;1.80;;
41436;SDS011;27178;49.460;10.850;2022-09-03T15:34:34;1.77;;;1.67;;
41436;SDS011;27178;49.460;10.850;2022-09-03T15:37:16;2.08;;;1.88;;
41436;SDS011;27178;49.460;10.850;2022-09-03T15:39:52;2.17;;;2.00;;
41436;SDS011;27178;49.460;10.850;2022-09-03T15:42:29;3.97;;;2.20;;